createdAt,value
2019-02-24T00:00:10.641Z,87.31
2019-02-24T00:02:39.582Z,86.72
2019-02-24T00:05:08.363Z,86.42
2019-02-24T00:07:37.235Z,86.25
2019-02-24T00:10:06.790Z,86.11
2019-02-24T00:12:35.532Z,86.61
2019-02-24T00:15:07.202Z,86.64
2019-02-24T00:17:36.021Z,86.59
2019-02-24T00:20:06.448Z,86.54
2019-02-24T00:22:35.229Z,86.37
2019-02-24T00:25:05.326Z,86.64
2019-02-24T00:27:34.013Z,86.94
2019-02-24T00:30:02.871Z,87.20
2019-02-24T00:32:31.644Z,87.18
2019-02-24T00:35:00.327Z,87.30
2019-02-24T00:37:29.324Z,87.35
2019-02-24T00:39:58.254Z,87.91
2019-02-24T00:42:27.113Z,88.24
2019-02-24T00:44:55.856Z,88.48
2019-02-24T00:47:24.585Z,88.72
2019-02-24T00:49:53.282Z,88.73
2019-02-24T00:52:22.240Z,88.51
2019-02-24T00:54:50.899Z,88.79
2019-02-24T00:57:19.917Z,88.21
2019-02-24T00:59:48.749Z,88.05
2019-02-24T01:02:17.458Z,87.58
2019-02-24T01:05:04.349Z,87.88
2019-02-24T01:07:49.952Z,88.78
2019-02-24T01:10:19.760Z,89.61
2019-02-24T01:12:48.553Z,89.76
2019-02-24T01:15:17.429Z,89.81
2019-02-24T01:17:46.044Z,90.01
2019-02-24T01:20:15.261Z,89.94
2019-02-24T01:22:43.995Z,89.59
2019-02-24T01:25:12.694Z,89.67
2019-02-24T01:27:41.372Z,89.52
2019-02-24T01:30:11.852Z,90.14
2019-02-24T01:32:40.935Z,90.51
2019-02-24T01:35:10.184Z,89.92
2019-02-24T01:37:38.927Z,89.77
2019-02-24T01:40:08.803Z,90.02
2019-02-24T01:42:37.708Z,90.06
2019-02-24T01:45:09.191Z,90.40
2019-02-24T01:47:38.175Z,90.50
2019-02-24T01:50:08.924Z,90.58
2019-02-24T01:52:37.581Z,90.67
2019-02-24T01:55:06.424Z,91.16
2019-02-24T01:57:35.063Z,90.79
2019-02-24T02:00:04.265Z,90.29
2019-02-24T02:02:33.062Z,90.52
2019-02-24T02:05:01.712Z,90.40
2019-02-24T02:07:30.422Z,90.71
2019-02-24T02:09:59.277Z,90.53
2019-02-24T02:12:28.201Z,90.58
2019-02-24T02:14:56.830Z,90.65
2019-02-24T02:17:25.473Z,90.48
2019-02-24T02:19:54.171Z,90.15
2019-02-24T02:22:22.882Z,89.62
2019-02-24T02:24:51.591Z,88.93
2019-02-24T02:27:20.535Z,88.69
2019-02-24T02:29:49.308Z,88.32
2019-02-24T02:32:18.074Z,88.09
2019-02-24T02:34:46.786Z,88.19
2019-02-24T02:37:15.551Z,87.99
2019-02-24T02:39:47.194Z,87.71
2019-02-24T02:42:15.918Z,87.78
2019-02-24T02:44:44.592Z,87.51
2019-02-24T02:47:13.309Z,87.62
2019-02-24T02:49:41.919Z,87.74
2019-02-24T02:52:10.551Z,87.88
2019-02-24T02:54:39.227Z,87.96
2019-02-24T02:57:08.022Z,87.72
2019-02-24T02:59:36.800Z,87.47
2019-02-24T03:02:05.429Z,87.88
2019-02-24T03:04:34.126Z,88.34
2019-02-24T03:07:07.042Z,88.69
2019-02-24T03:09:35.724Z,88.59
2019-02-24T03:12:05.719Z,88.39
2019-02-24T03:14:34.483Z,88.19
2019-02-24T03:17:03.390Z,88.22
2019-02-24T03:19:32.087Z,88.30
2019-02-24T03:22:00.758Z,88.58
2019-02-24T03:24:29.479Z,88.50
2019-02-24T03:26:58.112Z,88.20
2019-02-24T03:29:27.135Z,88.19
2019-02-24T03:31:55.942Z,88.40
2019-02-24T03:34:25.057Z,88.13
2019-02-24T03:36:53.728Z,87.97
2019-02-24T03:39:22.472Z,88.19
2019-02-24T03:41:51.409Z,88.09
2019-02-24T03:44:20.564Z,88.26
2019-02-24T03:46:49.650Z,88.78
2019-02-24T03:49:18.787Z,89.40
2019-02-24T03:51:47.495Z,89.85
2019-02-24T03:54:16.144Z,90.17
2019-02-24T03:56:45.073Z,90.52
2019-02-24T03:59:15.329Z,90.78
2019-02-24T04:01:44.534Z,91.51
2019-02-24T04:04:13.090Z,92.45
2019-02-24T04:06:42.097Z,92.79
2019-02-24T04:09:11.348Z,92.36
2019-02-24T04:11:40.015Z,91.47
2019-02-24T04:14:08.980Z,91.46
2019-02-24T04:16:37.782Z,91.35
2019-02-24T04:19:06.611Z,91.26
2019-02-24T04:21:35.245Z,91.05
2019-02-24T04:24:04.121Z,90.94
2019-02-24T04:26:32.875Z,90.97
2019-02-24T04:29:01.625Z,90.92
2019-02-24T04:31:30.585Z,91.18
2019-02-24T04:33:59.141Z,91.53
2019-02-24T04:36:27.893Z,91.64
2019-02-24T04:38:57.001Z,91.33
2019-02-24T04:41:26.087Z,90.72
2019-02-24T04:43:54.671Z,90.87
2019-02-24T04:46:23.403Z,90.84
2019-02-24T04:48:52.195Z,90.85
2019-02-24T04:51:21.166Z,91.23
2019-02-24T04:53:49.881Z,91.15
2019-02-24T04:56:19.007Z,91.59
2019-02-24T04:58:47.675Z,91.60
2019-02-24T05:01:16.633Z,91.16
2019-02-24T05:03:45.773Z,91.01
2019-02-24T05:06:14.379Z,90.69
2019-02-24T05:08:43.208Z,90.67
2019-02-24T05:11:11.819Z,90.76
2019-02-24T05:13:40.700Z,91.15
2019-02-24T05:16:09.496Z,90.89
2019-02-24T05:18:38.570Z,91.03
2019-02-24T05:21:07.288Z,91.07
2019-02-24T05:23:36.201Z,91.08
2019-02-24T05:26:05.743Z,90.90
2019-02-24T05:28:34.458Z,90.90
2019-02-24T05:31:03.414Z,90.85
2019-02-24T05:33:32.085Z,90.56
2019-02-24T05:36:00.929Z,89.80
2019-02-24T05:38:29.558Z,89.31
2019-02-24T05:40:58.282Z,88.97
2019-02-24T05:43:26.824Z,88.90
2019-02-24T05:45:55.305Z,88.59
2019-02-24T05:48:24.610Z,88.33
2019-02-24T05:50:53.625Z,88.81
2019-02-24T05:53:22.308Z,88.53
2019-02-24T05:55:50.983Z,88.57
2019-02-24T05:58:19.730Z,88.38
2019-02-24T06:00:48.432Z,87.58
2019-02-24T06:03:17.502Z,88.14
2019-02-24T06:05:46.217Z,88.27
2019-02-24T06:08:15.291Z,88.92
2019-02-24T06:10:44.008Z,89.53
2019-02-24T06:13:12.787Z,89.44
2019-02-24T06:15:41.394Z,89.83
2019-02-24T06:18:10.063Z,89.64
2019-02-24T06:20:39.146Z,89.20
2019-02-24T06:23:07.919Z,89.21
2019-02-24T06:25:36.515Z,89.28
2019-02-24T06:28:05.314Z,89.43
2019-02-24T06:30:33.961Z,89.69
2019-02-24T06:33:02.582Z,89.63
2019-02-24T06:35:31.337Z,90.23
2019-02-24T06:37:59.897Z,91.65
2019-02-24T06:40:28.749Z,92.79
2019-02-24T06:42:57.336Z,92.60
2019-02-24T06:45:26.147Z,91.92
2019-02-24T06:47:54.852Z,91.90
2019-02-24T06:50:23.554Z,91.88
2019-02-24T06:52:52.116Z,91.57
2019-02-24T06:55:20.841Z,91.49
2019-02-24T06:57:49.470Z,90.87
2019-02-24T07:00:18.056Z,90.95
2019-02-24T07:02:46.788Z,90.59
2019-02-24T07:05:15.597Z,90.60
2019-02-24T07:07:44.387Z,90.36
2019-02-24T07:10:13.006Z,90.35
2019-02-24T07:12:41.701Z,90.34
2019-02-24T07:15:10.258Z,90.25
2019-02-24T07:17:38.838Z,89.94
2019-02-24T07:20:08.703Z,89.26
2019-02-24T07:22:37.498Z,89.00
2019-02-24T07:25:07.511Z,88.07
2019-02-24T07:27:36.133Z,84.98
2019-02-24T07:30:07.700Z,81.41
2019-02-24T07:32:36.733Z,79.86
2019-02-24T07:35:06.928Z,77.31
2019-02-24T07:37:35.696Z,77.36
2019-02-24T07:40:06.412Z,75.86
2019-02-24T07:42:35.061Z,73.51
2019-02-24T07:45:05.873Z,73.90
2019-02-24T07:47:42.242Z,73.07
2019-02-24T07:50:11.281Z,72.36
2019-02-24T07:52:40.413Z,69.40
2019-02-24T07:55:09.165Z,69.06
2019-02-24T07:57:38.218Z,69.30
2019-02-24T08:00:10.467Z,69.63
2019-02-24T08:05:09.266Z,67.39
2019-02-24T08:07:38.120Z,63.83
2019-02-24T08:10:08.336Z,61.84
2019-02-24T08:12:37.227Z,64.22
2019-02-24T08:15:10.112Z,61.49
2019-02-24T08:17:40.733Z,58.75
2019-02-24T08:20:10.797Z,59.46
2019-02-24T08:22:40.710Z,58.37
2019-02-24T08:25:23.452Z,60.20
2019-02-24T08:27:55.505Z,59.96
2019-02-24T08:30:23.847Z,55.55
2019-02-24T08:32:52.593Z,53.89
2019-02-24T08:35:21.221Z,54.80
2019-02-24T08:37:50.301Z,57.14
2019-02-24T08:40:18.972Z,53.53
2019-02-24T08:42:48.273Z,52.82
2019-02-24T08:45:17.026Z,50.42
2019-02-24T08:47:45.741Z,50.12
2019-02-24T08:50:14.743Z,49.99
2019-02-24T08:52:43.566Z,53.82
2019-02-24T08:55:12.903Z,53.20
2019-02-24T08:57:41.690Z,51.93
2019-02-24T09:00:13.824Z,51.30
2019-02-24T09:02:43.514Z,48.17
2019-02-24T09:05:12.604Z,48.36
2019-02-24T09:07:41.835Z,50.50
2019-02-24T09:10:10.779Z,50.00
2019-02-24T09:12:40.265Z,49.43
2019-02-24T09:15:12.001Z,48.63
2019-02-24T09:17:42.411Z,49.99
2019-02-24T09:20:14.827Z,50.73
2019-02-24T09:22:45.055Z,50.03
2019-02-24T09:25:13.923Z,48.31
2019-02-24T09:27:42.757Z,48.27
2019-02-24T09:30:14.761Z,49.90
2019-02-24T09:32:44.348Z,50.72
2019-02-24T09:35:13.190Z,49.86
2019-02-24T09:37:41.989Z,51.56
2019-02-24T09:40:14.882Z,50.61
2019-02-24T09:42:43.534Z,48.29
2019-02-24T09:45:13.445Z,49.21
2019-02-24T09:47:47.390Z,47.10
2019-02-24T09:50:16.696Z,45.71
2019-02-24T09:52:45.488Z,45.20
2019-02-24T09:55:14.234Z,45.36
2019-02-24T09:57:45.104Z,44.25
2019-02-24T10:00:17.788Z,44.03
2019-02-24T10:02:47.572Z,42.22
2019-02-24T10:05:16.483Z,40.08
2019-02-24T10:07:45.517Z,42.07
2019-02-24T10:10:17.739Z,38.95
2019-02-24T10:12:46.689Z,38.95
2019-02-24T10:15:25.569Z,39.30
2019-02-24T10:17:54.409Z,39.31
2019-02-24T10:20:23.088Z,38.63
2019-02-24T10:23:00.873Z,40.04
2019-02-24T10:25:31.478Z,37.53
2019-02-24T10:28:00.688Z,35.88
2019-02-24T10:30:29.876Z,32.85
2019-02-24T10:32:58.586Z,33.52
2019-02-24T10:35:28.007Z,33.63
2019-02-24T10:37:57.204Z,33.87
2019-02-24T10:40:27.010Z,34.74
2019-02-24T10:42:56.595Z,36.63
2019-02-24T10:45:25.429Z,37.67
2019-02-24T10:47:55.899Z,38.46
2019-02-24T10:50:25.087Z,34.52
2019-02-24T10:52:54.183Z,36.04
2019-02-24T10:55:23.200Z,36.04
2019-02-24T10:57:52.074Z,35.51
2019-02-24T11:00:22.847Z,33.14
2019-02-24T11:02:52.180Z,32.72
2019-02-24T11:05:21.412Z,34.29
2019-02-24T11:07:51.668Z,35.69
2019-02-24T11:10:21.496Z,33.40
2019-02-24T11:12:51.169Z,34.74
2019-02-24T11:15:19.943Z,34.96
2019-02-24T11:17:48.568Z,34.21
2019-02-24T11:20:19.743Z,34.29
2019-02-24T11:22:49.041Z,35.75
2019-02-24T11:25:17.992Z,32.37
2019-02-24T11:27:46.828Z,32.42
2019-02-24T11:30:16.666Z,30.78
2019-02-24T11:32:45.287Z,31.63
2019-02-24T11:35:14.265Z,30.71
2019-02-24T11:37:42.972Z,31.45
2019-02-24T11:40:17.770Z,30.39
2019-02-24T11:42:46.658Z,33.66
2019-02-24T11:45:16.563Z,33.98
2019-02-24T11:47:46.198Z,32.16
2019-02-24T11:50:15.776Z,32.74
2019-02-24T11:52:45.479Z,33.51
2019-02-24T11:55:15.167Z,30.27
2019-02-24T11:57:44.156Z,31.34
2019-02-24T12:00:19.239Z,28.88
2019-02-24T12:02:48.329Z,28.82
2019-02-24T12:05:17.393Z,30.24
2019-02-24T12:07:46.496Z,30.27
2019-02-24T12:10:15.918Z,28.97
2019-02-24T12:12:48.433Z,30.28
2019-02-24T12:15:21.390Z,29.17
2019-02-24T12:17:52.055Z,27.68
2019-02-24T12:20:21.505Z,28.60
2019-02-24T12:22:52.231Z,27.91
2019-02-24T12:25:21.384Z,29.16
2019-02-24T12:27:50.032Z,29.54
2019-02-24T12:30:18.763Z,30.49
2019-02-24T12:32:47.403Z,29.49
2019-02-24T12:35:16.109Z,29.28
2019-02-24T12:37:44.741Z,29.61
2019-02-24T12:40:15.658Z,29.90
2019-02-24T12:42:47.878Z,27.82
2019-02-24T12:45:18.800Z,26.46
2019-02-24T12:47:47.929Z,28.01
2019-02-24T12:50:17.836Z,28.43
2019-02-24T12:52:46.588Z,27.68
2019-02-24T12:55:22.392Z,29.05
2019-02-24T12:57:51.498Z,30.90
2019-02-24T13:00:29.235Z,27.98
2019-02-24T13:02:58.224Z,29.81
2019-02-24T13:05:26.954Z,29.05
2019-02-24T13:07:56.462Z,28.96
2019-02-24T13:10:25.148Z,28.27
2019-02-24T13:12:54.078Z,26.85
2019-02-24T13:15:22.883Z,28.06
2019-02-24T13:17:51.520Z,27.10
2019-02-24T13:20:20.317Z,27.62
2019-02-24T13:22:49.048Z,28.08
2019-02-24T13:25:17.747Z,28.08
2019-02-24T13:27:46.626Z,27.63
2019-02-24T13:30:18.157Z,26.60
2019-02-24T13:32:46.910Z,26.37
2019-02-24T13:35:15.760Z,27.20
2019-02-24T13:37:44.588Z,27.23
2019-02-24T13:40:15.897Z,28.12
2019-02-24T13:42:44.569Z,26.36
2019-02-24T13:45:19.303Z,26.80
2019-02-24T13:47:48.004Z,26.82
2019-02-24T13:50:16.686Z,23.99
2019-02-24T13:52:45.394Z,24.46
2019-02-24T13:55:15.360Z,25.03
2019-02-24T13:57:44.154Z,24.83
2019-02-24T14:00:18.291Z,25.32
2019-02-24T14:02:47.027Z,24.96
2019-02-24T14:05:15.760Z,25.15
2019-02-24T14:07:44.680Z,24.64
2019-02-24T14:10:15.301Z,27.20
2019-02-24T14:12:43.918Z,26.28
2019-02-24T14:15:16.449Z,26.59
2019-02-24T14:17:45.069Z,24.35
2019-02-24T14:20:15.747Z,25.34
2019-02-24T14:22:44.376Z,24.97
2019-02-24T14:25:17.545Z,23.11
2019-02-24T14:27:46.328Z,23.10
2019-02-24T14:30:17.470Z,23.96
2019-02-24T14:32:46.228Z,24.50
2019-02-24T14:35:17.496Z,24.03
2019-02-24T14:37:46.208Z,23.57
2019-02-24T14:40:14.868Z,24.05
2019-02-24T14:42:43.613Z,23.90
2019-02-24T14:45:14.799Z,25.61
2019-02-24T14:47:43.546Z,24.77
2019-02-24T14:50:12.348Z,25.45
2019-02-24T14:52:40.973Z,25.99
2019-02-24T14:55:30.448Z,24.02
2019-02-24T14:57:59.060Z,25.37
2019-02-24T15:00:27.715Z,24.45
2019-02-24T15:02:56.345Z,24.61
2019-02-24T15:05:25.120Z,23.83
2019-02-24T15:07:53.825Z,24.96
2019-02-24T15:10:24.997Z,25.09
2019-02-24T15:12:53.683Z,24.50
2019-02-24T15:15:32.854Z,26.77
2019-02-24T15:17:57.550Z,26.92
2019-02-24T15:20:26.295Z,24.42
2019-02-24T15:22:55.149Z,24.14
2019-02-24T15:25:23.881Z,24.87
2019-02-24T15:27:52.625Z,26.01
2019-02-24T15:30:35.539Z,26.04
2019-02-24T15:33:05.101Z,27.05
2019-02-24T15:35:33.804Z,26.80
2019-02-24T15:38:02.596Z,27.89
2019-02-24T15:40:31.225Z,28.22
2019-02-24T15:42:59.926Z,30.26
2019-02-24T15:45:28.638Z,30.26
2019-02-24T15:48:00.934Z,30.20
2019-02-24T15:50:29.699Z,28.74
2019-02-24T15:52:58.358Z,28.23
2019-02-24T15:55:27.165Z,28.99
2019-02-24T15:57:56.123Z,28.67
2019-02-24T16:00:27.863Z,29.57
2019-02-24T16:03:01.600Z,30.44
2019-02-24T16:05:27.064Z,31.64
2019-02-24T16:07:55.903Z,31.62
2019-02-24T16:10:24.602Z,32.48
2019-02-24T16:12:53.292Z,34.44
2019-02-24T16:15:26.905Z,34.36
2019-02-24T16:17:55.680Z,38.80
2019-02-24T16:20:29.904Z,40.03
2019-02-24T16:22:58.688Z,40.60
2019-02-24T16:25:27.431Z,40.82
2019-02-24T16:27:56.237Z,40.21
2019-02-24T16:30:24.956Z,39.19
2019-02-24T16:32:53.772Z,41.58
2019-02-24T16:35:22.538Z,40.32
2019-02-24T16:37:51.277Z,40.33
2019-02-24T16:40:25.542Z,41.71
2019-02-24T16:42:54.223Z,41.99
2019-02-24T16:45:22.979Z,44.54
2019-02-24T16:47:51.710Z,45.63
2019-02-24T16:50:23.172Z,47.23
2019-02-24T16:52:51.903Z,48.34
2019-02-24T16:55:20.593Z,46.00
2019-02-24T16:57:49.220Z,48.45
2019-02-24T17:00:25.248Z,49.94
2019-02-24T17:02:53.964Z,54.45
2019-02-24T17:05:22.719Z,53.87
2019-02-24T17:07:51.354Z,54.38
2019-02-24T17:10:22.239Z,54.56
2019-02-24T17:12:50.859Z,54.71
2019-02-24T17:15:19.730Z,52.92
2019-02-24T17:17:48.371Z,51.48
2019-02-24T17:20:22.266Z,51.92
2019-02-24T17:22:50.918Z,53.78
2019-02-24T17:25:19.610Z,54.91
2019-02-24T17:27:48.812Z,54.58
2019-02-24T17:30:18.337Z,49.96
2019-02-24T17:32:47.032Z,55.09
2019-02-24T17:35:15.978Z,53.01
2019-02-24T17:37:44.592Z,54.10
2019-02-24T17:40:19.556Z,55.79
2019-02-24T17:42:51.622Z,56.03
2019-02-24T17:45:20.447Z,56.75
2019-02-24T17:47:49.178Z,57.11
2019-02-24T17:50:18.279Z,58.06
2019-02-24T17:52:47.106Z,57.48
2019-02-24T17:55:17.261Z,60.57
2019-02-24T17:57:46.046Z,61.61
2019-02-24T18:00:30.987Z,62.05
2019-02-24T18:02:59.793Z,60.29
2019-02-24T18:05:28.417Z,61.37
2019-02-24T18:07:57.860Z,59.28
2019-02-24T18:10:26.705Z,61.99
2019-02-24T18:12:55.392Z,60.27
2019-02-24T18:15:24.169Z,61.56
2019-02-24T18:17:52.856Z,62.03
2019-02-24T18:20:24.561Z,63.12
2019-02-24T18:22:53.369Z,64.05
2019-02-24T18:25:22.274Z,65.17
2019-02-24T18:27:50.928Z,64.23
2019-02-24T18:30:25.754Z,63.91
2019-02-24T18:32:54.506Z,63.52
2019-02-24T18:35:23.798Z,64.09
2019-02-24T18:37:52.455Z,64.08
2019-02-24T18:40:21.134Z,64.18
2019-02-24T18:42:59.418Z,61.79
2019-02-24T18:45:20.157Z,64.05
2019-02-24T18:47:49.867Z,64.52
2019-02-24T18:50:19.727Z,64.20
2019-02-24T18:52:49.524Z,63.33
2019-02-24T18:55:18.254Z,64.81
2019-02-24T18:57:47.050Z,64.86
2019-02-24T19:00:19.409Z,67.22
2019-02-24T19:02:48.778Z,66.43
2019-02-24T19:05:18.091Z,65.90
2019-02-24T19:07:47.595Z,66.59
2019-02-24T19:10:21.400Z,68.01
2019-02-24T19:12:51.550Z,67.48
2019-02-24T19:15:23.361Z,66.45
2019-02-24T19:17:52.798Z,67.38
2019-02-24T19:20:24.043Z,68.80
2019-02-24T19:22:53.326Z,69.67
2019-02-24T19:25:23.317Z,68.90
2019-02-24T19:27:52.707Z,68.95
2019-02-24T19:30:23.106Z,67.86
2019-02-24T19:32:51.905Z,69.08
2019-02-24T19:35:20.667Z,69.04
2019-02-24T19:37:49.512Z,68.65
2019-02-24T19:40:20.660Z,68.31
2019-02-24T19:43:00.223Z,67.28
2019-02-24T19:45:31.770Z,67.14
2019-02-24T19:48:00.803Z,67.71
2019-02-24T19:50:30.030Z,69.73
2019-02-24T19:52:58.574Z,68.41
2019-02-24T19:55:27.495Z,69.44
2019-02-24T19:57:56.419Z,69.44
2019-02-24T20:00:27.056Z,68.70
2019-02-24T20:02:56.089Z,67.88
2019-02-24T20:05:25.805Z,66.39
2019-02-24T20:07:55.254Z,68.40
2019-02-24T20:10:31.067Z,68.91
2019-02-24T20:12:59.787Z,67.41
2019-02-24T20:15:28.409Z,67.96
2019-02-24T20:17:57.054Z,69.17
2019-02-24T20:20:25.738Z,69.83
2019-02-24T20:22:54.515Z,70.50
2019-02-24T20:25:23.978Z,70.87
2019-02-24T20:27:52.690Z,69.48
2019-02-24T20:30:27.087Z,69.45
2019-02-24T20:32:55.711Z,69.31
2019-02-24T20:35:25.378Z,69.96
2019-02-24T20:37:54.339Z,71.25
2019-02-24T20:40:23.063Z,70.43
2019-02-24T20:42:53.843Z,72.77
2019-02-24T20:45:25.591Z,72.07
2019-02-24T20:47:55.678Z,71.86
2019-02-24T20:50:30.339Z,73.50
2019-02-24T20:52:59.035Z,73.81
2019-02-24T20:55:28.171Z,74.35
2019-02-24T20:57:57.013Z,73.79
2019-02-24T21:00:28.546Z,73.17
2019-02-24T21:03:06.512Z,73.37
2019-02-24T21:05:35.677Z,74.51
2019-02-24T21:08:05.258Z,73.65
2019-02-24T21:10:35.379Z,71.10
2019-02-24T21:13:06.916Z,69.32
2019-02-24T21:15:36.648Z,67.89
2019-02-24T21:18:07.212Z,69.42
2019-02-24T21:20:36.074Z,69.83
2019-02-24T21:23:06.351Z,69.64
2019-02-24T21:25:37.293Z,70.51
2019-02-24T21:28:06.236Z,72.71
2019-02-24T21:30:36.269Z,72.54
2019-02-24T21:33:16.800Z,72.85
2019-02-24T21:35:47.761Z,73.50
2019-02-24T21:38:18.314Z,73.89
2019-02-24T21:40:50.033Z,75.46
2019-02-24T21:43:21.381Z,76.10
2019-02-24T21:45:52.085Z,76.60
2019-02-24T21:48:23.070Z,76.13
2019-02-24T21:50:51.960Z,75.98
2019-02-24T21:53:42.365Z,75.29
2019-02-24T21:56:14.038Z,74.73
2019-02-24T21:58:42.850Z,74.92
2019-02-24T22:01:12.619Z,74.83
2019-02-24T22:03:41.308Z,75.71
2019-02-24T22:06:09.845Z,76.87
2019-02-24T22:08:38.536Z,75.74
2019-02-24T22:11:07.144Z,74.84
2019-02-24T22:13:35.888Z,75.16
2019-02-24T22:16:04.767Z,72.27
2019-02-24T22:18:33.490Z,72.21
2019-02-24T22:21:02.163Z,73.84
2019-02-24T22:23:32.115Z,74.86
2019-02-24T22:26:00.879Z,76.12
2019-02-24T22:28:29.515Z,76.98
2019-02-24T22:30:58.134Z,76.46
2019-02-24T22:33:26.792Z,76.86
2019-02-24T22:35:55.519Z,76.96
2019-02-24T22:38:24.382Z,76.19
2019-02-24T22:40:54.599Z,76.05
2019-02-24T22:43:23.337Z,76.82
2019-02-24T22:45:52.049Z,77.21
2019-02-24T22:48:20.672Z,77.34
2019-02-24T22:50:49.319Z,77.26
2019-02-24T22:53:17.968Z,77.67
2019-02-24T22:55:46.611Z,77.67
2019-02-24T22:58:15.364Z,77.02
2019-02-24T23:00:54.032Z,75.86
2019-02-24T23:03:28.337Z,76.95
2019-02-24T23:05:58.978Z,77.85
2019-02-24T23:08:28.649Z,77.25
2019-02-24T23:10:58.130Z,77.68
2019-02-24T23:13:27.693Z,77.20
2019-02-24T23:15:57.179Z,76.34
2019-02-24T23:18:26.983Z,76.73
2019-02-24T23:20:55.614Z,77.08
2019-02-24T23:23:25.073Z,76.97
2019-02-24T23:25:54.771Z,77.69
2019-02-24T23:28:23.450Z,77.45
2019-02-24T23:30:52.140Z,75.92
2019-02-24T23:33:20.849Z,77.40
2019-02-24T23:35:49.540Z,77.94
2019-02-24T23:38:18.338Z,77.17
2019-02-24T23:40:46.996Z,76.33
2019-02-24T23:43:15.766Z,74.81
2019-02-24T23:45:44.467Z,75.32
2019-02-24T23:48:13.178Z,75.47
2019-02-24T23:50:41.757Z,74.54
2019-02-24T23:53:10.479Z,75.42
2019-02-24T23:55:39.196Z,75.20
2019-02-24T23:58:07.828Z,74.67
